Time;durP1;ratioP1;P1;durP2;ratioP2;P2;SDS_P1;SDS_P2;PMS_P1;PMS_P2;Temp;Humidity;BMP_temperature;BMP_pressure;BME280_temperature;BME280_humidity;BME280_pressure;Samples;Min_cycle;Max_cycle;Signal;HPM_P1;HPM_P2
2022/07/10 00:00:15;;;;;;;3.90;1.05;;;20.60;90.20;;;;;;5118740;27;20039;-73
2022/07/10 00:02:42;;;;;;;2.03;1.20;;;20.60;90.20;;;;;;5120581;27;20043;-73
2022/07/10 00:05:09;;;;;;;4.32;1.23;;;20.60;90.30;;;;;;5120148;27;22701;-73
2022/07/10 00:07:35;;;;;;;1.67;1.15;;;20.60;90.30;;;;;;5119548;27;20358;-73
2022/07/10 00:10:01;;;;;;;3.85;1.17;;;20.60;90.30;;;;;;5118951;27;20287;-73
2022/07/10 00:12:27;;;;;;;1.98;1.20;;;20.60;90.30;;;;;;5121159;27;20524;-73
2022/07/10 00:14:53;;;;;;;4.15;1.17;;;20.60;90.30;;;;;;5120996;27;20044;-73
2022/07/10 00:17:19;;;;;;;1.95;1.52;;;20.50;90.30;;;;;;5121249;27;20056;-73
2022/07/10 00:19:44;;;;;;;3.85;1.10;;;20.50;90.30;;;;;;5118870;27;20620;-73
2022/07/10 00:22:10;;;;;;;3.55;1.38;;;20.50;90.40;;;;;;5117754;27;20158;-73
2022/07/10 00:24:36;;;;;;;4.25;2.35;;;20.50;90.40;;;;;;5120237;27;20390;-73
2022/07/10 00:27:02;;;;;;;2.38;1.20;;;20.50;90.50;;;;;;5120174;27;20047;-73
2022/07/10 00:29:28;;;;;;;1.35;0.90;;;20.50;90.40;;;;;;5122721;27;20408;-73
2022/07/10 00:31:54;;;;;;;4.00;1.00;;;20.40;90.40;;;;;;5118120;27;20130;-73
2022/07/10 00:34:20;;;;;;;1.92;1.00;;;20.40;90.50;;;;;;5119839;27;20044;-73
2022/07/10 00:36:45;;;;;;;1.52;0.95;;;20.40;90.50;;;;;;5119019;27;20062;-73
2022/07/10 00:39:11;;;;;;;1.42;0.98;;;20.40;90.50;;;;;;5115620;27;20044;-73
2022/07/10 00:41:37;;;;;;;2.67;1.38;;;20.20;90.60;;;;;;5119307;27;20044;-73
2022/07/10 00:44:03;;;;;;;3.58;1.05;;;20.20;90.60;;;;;;5119756;27;20225;-73
2022/07/10 00:46:30;;;;;;;3.22;1.77;;;20.10;90.60;;;;;;5120580;27;20075;-73
2022/07/10 00:48:57;;;;;;;2.67;1.02;;;20.10;90.70;;;;;;5120880;27;20516;-73
2022/07/10 00:51:28;;;;;;;3.17;1.42;;;20.10;90.80;;;;;;5104221;27;20154;-73
2022/07/10 00:53:54;;;;;;;2.17;1.42;;;20.00;90.80;;;;;;5117816;27;20568;-73
2022/07/10 00:56:23;;;;;;;2.13;1.23;;;20.00;91.10;;;;;;5119312;27;20104;-73
2022/07/10 00:58:49;;;;;;;2.58;1.23;;;19.90;90.80;;;;;;5118365;27;20090;-73
2022/07/10 01:01:16;;;;;;;2.40;1.63;;;19.80;90.90;;;;;;5118932;27;20042;-73
2022/07/10 01:03:43;;;;;;;4.10;1.83;;;19.80;91.00;;;;;;5118642;27;20486;-73
2022/07/10 01:06:09;;;;;;;1.60;1.08;;;19.80;91.10;;;;;;5122635;27;20031;-73
2022/07/10 01:08:36;;;;;;;5.70;1.23;;;19.70;91.10;;;;;;5118634;27;20107;-73
2022/07/10 01:11:02;;;;;;;3.10;1.13;;;19.70;91.20;;;;;;5124244;27;20176;-73
2022/07/10 01:13:28;;;;;;;2.05;0.82;;;19.70;91.20;;;;;;5126274;27;20536;-73
2022/07/10 01:15:54;;;;;;;1.33;1.00;;;19.70;91.10;;;;;;5127780;27;20043;-73
2022/07/10 01:18:20;;;;;;;4.05;1.20;;;19.70;91.10;;;;;;5127116;27;20039;-73
2022/07/10 01:20:46;;;;;;;1.52;1.08;;;19.60;91.20;;;;;;5122498;27;20780;-74
2022/07/10 01:23:12;;;;;;;1.73;1.20;;;19.60;91.20;;;;;;5122992;27;20036;-74
2022/07/10 01:25:37;;;;;;;2.67;1.27;;;19.60;91.30;;;;;;5122576;27;20409;-73
2022/07/10 01:28:03;;;;;;;3.15;1.42;;;19.60;91.30;;;;;;5123895;27;20048;-74
2022/07/10 01:30:29;;;;;;;3.05;1.27;;;19.60;91.30;;;;;;5121480;27;20047;-73
2022/07/10 01:32:55;;;;;;;3.35;1.65;;;19.50;91.40;;;;;;5123196;27;20044;-74
2022/07/10 01:35:21;;;;;;;3.35;1.48;;;19.50;91.40;;;;;;5123132;27;20325;-73
2022/07/10 01:37:47;;;;;;;1.92;1.20;;;19.50;91.50;;;;;;5123478;27;20803;-73
2022/07/10 01:40:12;;;;;;;1.52;1.10;;;19.40;91.50;;;;;;5120677;27;20552;-73
2022/07/10 01:42:39;;;;;;;1.08;0.98;;;19.40;91.50;;;;;;5121019;27;20117;-73
2022/07/10 01:45:09;;;;;;;2.88;1.10;;;19.40;91.50;;;;;;5124669;27;20528;-74
2022/07/10 01:47:36;;;;;;;2.20;1.30;;;19.30;91.60;;;;;;5126271;27;20497;-73
2022/07/10 01:50:02;;;;;;;2.42;1.60;;;19.40;91.60;;;;;;5120741;27;20651;-74
2022/07/10 01:52:28;;;;;;;3.00;1.58;;;19.20;91.90;;;;;;5123521;27;20130;-74
2022/07/10 01:54:53;;;;;;;2.30;1.40;;;19.20;91.70;;;;;;5122145;27;20455;-73
2022/07/10 01:57:19;;;;;;;3.58;1.30;;;19.10;91.80;;;;;;5122530;27;20032;-74
2022/07/10 01:59:45;;;;;;;2.22;1.17;;;19.10;91.80;;;;;;5121045;27;20094;-73
2022/07/10 02:02:11;;;;;;;1.70;1.25;;;19.10;91.90;;;;;;5115278;27;20539;-74
2022/07/10 02:04:42;;;;;;;5.40;1.10;;;19.00;91.90;;;;;;5121718;27;20510;-73
2022/07/10 02:07:13;;;;;;;3.63;1.52;;;19.00;92.00;;;;;;5123660;27;20385;-73
2022/07/10 02:09:39;;;;;;;1.98;1.05;;;19.00;92.00;;;;;;5122897;27;20265;-73
2022/07/10 02:12:13;;;;;;;2.88;1.20;;;19.00;92.00;;;;;;5120913;27;20056;-73
2022/07/10 02:14:39;;;;;;;;;;;19.00;92.10;;;;;;5120817;27;20142;-73
2022/07/10 02:17:05;;;;;;;4.00;1.58;;;18.90;92.10;;;;;;5119746;27;19923;-74
2022/07/10 02:19:31;;;;;;;2.90;1.30;;;18.90;92.20;;;;;;5120757;27;20567;-73
2022/07/10 02:21:57;;;;;;;5.63;1.20;;;18.90;92.20;;;;;;5116999;27;20039;-74
2022/07/10 02:24:23;;;;;;;2.22;1.13;;;18.90;92.30;;;;;;5106589;27;20094;-73
2022/07/10 02:26:49;;;;;;;4.35;1.30;;;18.80;92.30;;;;;;5119135;27;20123;-74
2022/07/10 02:29:15;;;;;;;2.47;1.75;;;18.80;92.40;;;;;;5124319;27;20044;-74
2022/07/10 02:31:41;;;;;;;1.95;1.10;;;18.70;92.40;;;;;;5116315;27;20049;-73
2022/07/10 02:34:11;;;;;;;2.03;1.27;;;18.70;92.50;;;;;;5121447;27;20057;-73
2022/07/10 02:36:38;;;;;;;1.75;1.20;;;18.70;92.50;;;;;;5120931;27;20043;-73
2022/07/10 02:39:08;;;;;;;2.67;1.27;;;18.60;92.60;;;;;;5116483;27;20648;-73
2022/07/10 02:41:35;;;;;;;2.35;1.15;;;18.60;92.60;;;;;;5120270;27;20036;-73
2022/07/10 02:44:02;;;;;;;4.90;1.60;;;18.60;92.70;;;;;;5115657;27;20544;-74
2022/07/10 02:46:28;;;;;;;1.95;1.20;;;18.60;92.70;;;;;;5121750;27;20520;-74
2022/07/10 02:48:54;;;;;;;1.50;1.10;;;18.60;92.80;;;;;;5121422;27;20088;-74
2022/07/10 02:51:20;;;;;;;1.75;1.25;;;18.50;92.80;;;;;;5120766;27;20047;-74
2022/07/10 02:53:45;;;;;;;2.13;1.20;;;18.60;92.80;;;;;;5118335;27;20430;-74
2022/07/10 02:56:11;;;;;;;2.38;1.40;;;18.50;92.80;;;;;;5120692;27;20031;-74
2022/07/10 02:58:38;;;;;;;2.83;1.45;;;18.50;92.90;;;;;;5119731;27;20039;-74
2022/07/10 03:01:04;;;;;;;6.53;1.70;;;18.50;93.00;;;;;;5119850;27;20066;-74
2022/07/10 03:03:30;;;;;;;6.03;1.63;;;18.50;93.00;;;;;;5117019;27;20035;-73
2022/07/10 03:05:56;;;;;;;3.50;1.30;;;18.40;93.00;;;;;;5122223;27;20520;-74
2022/07/10 03:08:21;;;;;;;2.35;1.25;;;18.40;93.10;;;;;;5122152;27;20177;-74
2022/07/10 03:10:47;;;;;;;1.88;1.15;;;18.40;93.10;;;;;;5117981;27;20528;-74
2022/07/10 03:13:13;;;;;;;2.58;1.60;;;18.40;93.10;;;;;;5123195;27;20047;-74
2022/07/10 03:15:39;;;;;;;3.33;1.50;;;18.40;93.20;;;;;;5120484;27;20620;-74
2022/07/10 03:18:05;;;;;;;3.42;1.95;;;18.30;93.20;;;;;;5119561;27;20050;-73
2022/07/10 03:20:30;;;;;;;5.00;1.50;;;18.30;93.30;;;;;;5117615;27;20039;-73
2022/07/10 03:22:56;;;;;;;1.75;1.30;;;18.20;93.30;;;;;;5121305;27;20043;-74
2022/07/10 03:25:22;;;;;;;4.13;1.88;;;18.20;93.40;;;;;;5119630;27;20046;-73
2022/07/10 03:27:48;;;;;;;4.25;1.77;;;18.20;93.50;;;;;;5118782;27;20047;-74
2022/07/10 03:30:13;;;;;;;2.78;1.45;;;18.20;93.50;;;;;;5101626;27;20044;-73
2022/07/10 03:32:39;;;;;;;2.92;1.40;;;18.20;93.60;;;;;;5120173;27;20051;-73
2022/07/10 03:35:05;;;;;;;6.15;2.28;;;18.20;93.60;;;;;;5122380;27;20122;-73
2022/07/10 03:37:31;;;;;;;9.82;2.80;;;18.20;93.70;;;;;;5118361;27;20647;-73
2022/07/10 03:39:57;;;;;;;1.75;1.13;;;18.20;93.70;;;;;;5122154;27;20134;-73
2022/07/10 03:42:23;;;;;;;6.20;1.88;;;18.10;93.80;;;;;;5118321;27;20040;-73
2022/07/10 03:44:48;;;;;;;2.97;1.33;;;18.00;93.80;;;;;;5117737;27;20508;-74
2022/07/10 03:47:14;;;;;;;5.28;1.80;;;18.00;93.90;;;;;;5118771;27;20605;-73
2022/07/10 03:49:41;;;;;;;2.85;1.40;;;18.10;93.90;;;;;;5119556;27;20056;-73
2022/07/10 03:52:07;;;;;;;2.58;1.40;;;18.00;94.00;;;;;;5117699;27;20039;-74
2022/07/10 03:54:33;;;;;;;5.53;2.70;;;18.00;94.00;;;;;;5120520;27;20043;-73
2022/07/10 03:59:44;;;;;;;5.97;1.73;;;18.00;94.10;;;;;;5117521;27;20119;-74
2022/07/10 04:02:09;;;;;;;2.28;1.52;;;18.00;94.10;;;;;;5116733;27;20131;-74
2022/07/10 04:04:35;;;;;;;7.90;2.22;;;18.00;94.20;;;;;;5118525;27;20925;-74
2022/07/10 04:07:01;;;;;;;3.45;1.83;;;17.90;94.20;;;;;;5121370;27;20543;-74
2022/07/10 04:09:27;;;;;;;5.35;1.90;;;17.90;94.30;;;;;;5121624;27;20047;-73
2022/07/10 04:11:53;;;;;;;3.63;1.63;;;18.00;94.30;;;;;;5120207;27;20518;-74
2022/07/10 04:14:19;;;;;;;3.25;1.40;;;17.90;94.40;;;;;;5120862;27;20042;-74
2022/07/10 04:16:44;;;;;;;5.35;1.40;;;17.90;94.40;;;;;;5120372;27;20644;-74
2022/07/10 04:19:10;;;;;;;3.08;1.88;;;17.80;94.50;;;;;;5118674;27;20067;-72
2022/07/10 04:21:36;;;;;;;1.75;1.15;;;17.80;94.50;;;;;;5120612;27;20104;-72
2022/07/10 04:24:03;;;;;;;3.28;1.60;;;17.80;94.60;;;;;;5121749;27;20436;-73
2022/07/10 04:26:28;;;;;;;4.22;1.70;;;17.80;94.70;;;;;;5117492;27;20078;-74
2022/07/10 04:28:54;;;;;;;2.10;1.27;;;17.80;94.70;;;;;;5118893;27;20070;-73
2022/07/10 04:31:20;;;;;;;5.05;1.65;;;17.80;94.80;;;;;;5115714;27;20047;-73
2022/07/10 04:33:46;;;;;;;3.20;1.92;;;17.70;94.80;;;;;;5118779;27;20047;-73
2022/07/10 04:36:11;;;;;;;2.60;1.77;;;17.70;94.90;;;;;;5119073;27;20603;-73
2022/07/10 04:38:37;;;;;;;3.47;1.67;;;17.70;94.90;;;;;;5119133;27;20047;-74
2022/07/10 04:41:03;;;;;;;4.93;1.63;;;17.80;94.90;;;;;;5114985;27;20055;-74
2022/07/10 04:43:30;;;;;;;5.15;2.05;;;17.80;95.00;;;;;;5118822;27;21275;-74
2022/07/10 04:45:56;;;;;;;2.22;1.45;;;17.80;95.00;;;;;;5121709;27;20496;-73
2022/07/10 04:48:22;;;;;;;4.85;1.60;;;17.80;95.00;;;;;;5121432;27;20055;-73
2022/07/10 04:50:47;;;;;;;4.20;2.55;;;17.70;95.00;;;;;;5120723;27;20104;-74
2022/07/10 04:53:13;;;;;;;4.05;2.10;;;17.70;95.10;;;;;;5123738;27;20067;-74
2022/07/10 04:55:39;;;;;;;6.75;2.10;;;17.60;95.20;;;;;;5119073;27;20044;-73
2022/07/10 04:58:05;;;;;;;3.30;1.20;;;17.60;95.20;;;;;;5121009;27;20044;-74
2022/07/10 05:00:30;;;;;;;3.42;1.48;;;17.60;95.30;;;;;;5104037;27;20092;-74
2022/07/10 05:02:56;;;;;;;7.38;1.85;;;17.60;95.40;;;;;;5122658;27;20093;-74
2022/07/10 05:05:22;;;;;;;3.40;1.38;;;17.60;95.40;;;;;;5121636;27;20031;-74
2022/07/10 05:07:48;;;;;;;5.63;1.60;;;17.60;95.50;;;;;;5123152;27;20055;-73
2022/07/10 05:10:14;;;;;;;5.25;1.60;;;17.60;95.50;;;;;;5124550;27;20412;-73
2022/07/10 05:12:39;;;;;;;4.20;1.55;;;17.70;95.50;;;;;;5120602;27;20040;-74
2022/07/10 05:15:06;;;;;;;3.47;1.90;;;17.70;95.50;;;;;;5123758;27;20043;-74
2022/07/10 05:17:31;;;;;;;5.28;1.90;;;17.60;95.50;;;;;;5122567;27;20048;-73
2022/07/10 05:19:58;;;;;;;7.90;2.70;;;17.60;95.70;;;;;;5123203;27;20044;-73
2022/07/10 05:22:24;;;;;;;6.60;2.08;;;17.50;95.70;;;;;;5123627;27;20558;-74
2022/07/10 05:24:50;;;;;;;2.65;1.77;;;17.60;95.80;;;;;;5125332;27;20699;-72
2022/07/10 05:27:18;;;;;;;3.55;1.75;;;17.60;95.80;;;;;;5122868;27;20047;-74
2022/07/10 05:29:44;;;;;;;4.88;1.88;;;17.60;95.90;;;;;;5121754;27;20039;-74
2022/07/10 05:32:10;;;;;;;6.97;1.98;;;17.60;95.90;;;;;;5122504;27;20039;-73
2022/07/10 05:34:36;;;;;;;2.33;1.60;;;17.70;95.90;;;;;;5120269;27;20032;-73
2022/07/10 05:37:02;;;;;;;3.13;1.42;;;17.70;96.00;;;;;;5124341;27;20591;-73
2022/07/10 05:39:27;;;;;;;3.58;1.63;;;17.70;96.00;;;;;;5119462;27;20098;-73
2022/07/10 05:41:55;;;;;;;4.57;1.75;;;17.70;96.00;;;;;;5121394;27;20047;-73
2022/07/10 05:44:21;;;;;;;2.75;1.67;;;17.70;96.00;;;;;;5120208;27;20032;-74
2022/07/10 05:46:47;;;;;;;7.68;1.90;;;17.70;96.10;;;;;;5122624;27;20043;-73
2022/07/10 05:49:12;;;;;;;2.88;1.88;;;17.70;96.10;;;;;;5122817;27;20043;-74
2022/07/10 05:51:38;;;;;;;3.03;1.70;;;17.70;96.10;;;;;;5114337;27;20083;-76
2022/07/10 05:54:04;;;;;;;4.22;1.50;;;17.70;96.20;;;;;;5121220;27;20046;-74
2022/07/10 05:56:30;;;;;;;5.75;1.70;;;17.70;96.20;;;;;;5123620;27;20044;-74
2022/07/10 05:58:56;;;;;;;2.70;1.33;;;17.70;96.20;;;;;;5121563;27;20572;-74
2022/07/10 06:01:22;;;;;;;4.35;2.00;;;17.70;96.30;;;;;;5121460;27;20035;-77
2022/07/10 06:03:48;;;;;;;3.38;1.77;;;17.70;96.40;;;;;;5118295;27;20168;-75
2022/07/10 06:06:17;;;;;;;4.47;1.60;;;17.80;96.40;;;;;;5105758;27;20103;-74
2022/07/10 06:08:43;;;;;;;3.03;1.77;;;17.80;96.50;;;;;;5122536;27;20039;-75
2022/07/10 06:11:10;;;;;;;3.85;1.58;;;17.80;96.60;;;;;;5124117;27;20046;-75
2022/07/10 06:13:36;;;;;;;3.63;1.90;;;17.80;96.60;;;;;;5118729;27;20067;-74
2022/07/10 06:16:02;;;;;;;4.78;2.30;;;17.80;96.60;;;;;;5120054;27;20907;-74
2022/07/10 06:18:27;;;;;;;3.65;1.70;;;17.90;96.60;;;;;;5122467;27;20040;-75
2022/07/10 06:20:53;;;;;;;2.42;1.58;;;17.90;96.60;;;;;;5122150;27;20151;-75
2022/07/10 06:23:19;;;;;;;4.63;1.50;;;17.90;96.60;;;;;;5122431;27;20536;-75
2022/07/10 06:25:44;;;;;;;4.40;1.90;;;17.90;96.70;;;;;;5121776;27;20044;-75
2022/07/10 06:28:10;;;;;;;7.80;2.35;;;18.00;96.70;;;;;;5122360;27;20067;-75
2022/07/10 06:30:36;;;;;;;3.45;1.70;;;17.70;96.70;;;;;;5103114;27;20055;-74
2022/07/10 06:33:02;;;;;;;3.42;1.90;;;18.00;96.80;;;;;;5120587;27;20105;-74
2022/07/10 06:35:27;;;;;;;3.15;1.88;;;18.00;96.80;;;;;;5119794;27;20075;-74
2022/07/10 06:37:53;;;;;;;8.57;2.58;;;18.00;96.80;;;;;;5118071;27;20055;-74
2022/07/10 06:40:20;;;;;;;3.22;1.80;;;18.10;96.80;;;;;;5115502;27;20122;-75
2022/07/10 06:42:46;;;;;;;3.88;2.05;;;18.10;96.80;;;;;;5117412;27;20043;-74
2022/07/10 06:45:12;;;;;;;2.40;1.50;;;18.10;96.80;;;;;;5116879;27;20046;-74
2022/07/10 06:47:57;;;;;;;5.47;2.28;;;18.10;96.90;;;;;;5117148;27;20039;-74
2022/07/10 06:50:34;;;;;;;4.78;1.80;;;18.20;96.90;;;;;;5120505;27;20043;-74
2022/07/10 06:53:01;;;;;;;3.42;2.28;;;18.20;96.90;;;;;;5116278;27;20044;-74
2022/07/10 06:55:27;;;;;;;4.07;1.90;;;18.20;96.90;;;;;;5134934;27;20046;-74
2022/07/10 06:57:53;;;;;;;4.07;2.15;;;18.20;96.90;;;;;;5118522;27;20031;-79
2022/07/10 07:00:19;;;;;;;3.47;2.15;;;18.30;97.00;;;;;;5119547;27;20534;-75
2022/07/10 07:02:45;;;;;;;4.97;2.08;;;18.30;97.00;;;;;;5123952;27;20046;-74
2022/07/10 07:05:11;;;;;;;4.65;1.58;;;18.30;97.00;;;;;;5123791;27;20051;-74
2022/07/10 07:07:37;;;;;;;4.07;2.00;;;18.30;97.00;;;;;;5124555;27;20071;-74
2022/07/10 07:10:04;;;;;;;4.93;1.75;;;18.30;97.00;;;;;;5122019;27;20114;-75
2022/07/10 07:12:30;;;;;;;4.85;2.35;;;18.30;97.00;;;;;;5122649;27;20031;-74
2022/07/10 07:14:56;;;;;;;3.20;2.10;;;18.30;97.00;;;;;;5119703;27;20044;-74
2022/07/10 07:17:22;;;;;;;4.13;1.58;;;18.40;97.00;;;;;;5122542;27;20070;-74
2022/07/10 07:25:21;;;;;;;3.15;1.52;;;18.50;96.90;;;;;;5122979;27;20548;-74
2022/07/10 07:27:47;;;;;;;6.10;1.88;;;18.50;96.80;;;;;;5114255;27;20131;-74
2022/07/10 07:30:15;;;;;;;6.32;2.28;;;18.50;96.50;;;;;;5120219;27;20539;-74
2022/07/10 07:32:41;;;;;;;4.18;1.35;;;18.50;96.50;;;;;;5120290;27;20043;-74
2022/07/10 07:35:08;;;;;;;3.97;1.88;;;18.60;96.40;;;;;;5123586;27;20883;-75
2022/07/10 07:37:45;;;;;;;2.30;1.40;;;18.60;96.30;;;;;;5122631;27;20140;-75
2022/07/10 07:40:13;;;;;;;4.53;1.40;;;18.60;96.10;;;;;;5123300;27;20043;-75
2022/07/10 07:42:39;;;;;;;2.85;1.60;;;18.60;96.10;;;;;;5119764;27;20621;-78
2022/07/10 07:45:05;;;;;;;2.88;1.70;;;18.70;96.00;;;;;;5121150;27;20039;-79
2022/07/10 07:47:42;;;;;;;3.05;1.65;;;18.70;96.00;;;;;;5117440;27;20138;-75
2022/07/10 07:50:07;;;;;;;7.13;2.13;;;18.70;95.90;;;;;;5116109;27;20031;-76
2022/07/10 07:52:35;;;;;;;4.53;2.05;;;18.70;95.80;;;;;;5114841;27;20039;-76
2022/07/10 07:55:01;;;;;;;6.50;1.75;;;18.80;95.80;;;;;;5133944;27;20065;-76
2022/07/10 07:57:27;;;;;;;6.75;1.60;;;18.80;95.70;;;;;;5116314;27;20052;-76
2022/07/10 07:59:53;;;;;;;2.63;1.63;;;18.80;95.70;;;;;;5118806;27;20028;-75
2022/07/10 08:02:19;;;;;;;5.28;1.88;;;18.90;95.60;;;;;;5110897;27;20116;-76
2022/07/10 08:04:44;;;;;;;4.05;1.40;;;18.90;95.60;;;;;;5117120;27;20162;-76
2022/07/10 08:07:10;;;;;;;1.88;1.15;;;18.90;95.50;;;;;;5117748;27;20059;-76
2022/07/10 08:09:36;;;;;;;3.22;1.77;;;18.90;95.20;;;;;;5114352;27;20042;-76
2022/07/10 08:12:02;;;;;;;4.30;1.55;;;18.90;95.20;;;;;;5111835;27;20629;-76
2022/07/10 08:14:27;;;;;;;4.05;1.77;;;19.00;95.20;;;;;;5119947;27;20044;-75
2022/07/10 08:16:53;;;;;;;2.90;1.60;;;19.00;95.30;;;;;;5121277;27;20051;-75
2022/07/10 08:19:19;;;;;;;3.75;2.08;;;19.00;94.90;;;;;;5117244;27;20040;-75
2022/07/10 08:21:45;;;;;;;4.03;1.63;;;19.00;94.90;;;;;;5119392;27;20057;-75
2022/07/10 08:24:10;;;;;;;2.17;1.25;;;19.10;94.70;;;;;;5117968;27;20093;-75
2022/07/10 08:26:36;;;;;;;5.10;1.92;;;19.20;94.50;;;;;;5120639;27;20039;-75
2022/07/10 08:29:02;;;;;;;3.58;1.33;;;19.20;94.40;;;;;;5120403;27;20572;-75
2022/07/10 08:31:27;;;;;;;3.53;1.65;;;19.20;94.30;;;;;;5106049;27;20035;-75
2022/07/10 08:33:53;;;;;;;5.13;1.90;;;19.20;94.30;;;;;;5121680;27;20525;-75
2022/07/10 08:36:19;;;;;;;3.38;1.60;;;19.30;94.20;;;;;;5117387;27;20233;-75
2022/07/10 08:38:45;;;;;;;4.65;1.70;;;19.30;94.20;;;;;;5120642;27;20123;-75
2022/07/10 08:41:12;;;;;;;3.20;1.42;;;19.40;94.00;;;;;;5122263;27;20039;-76
2022/07/10 08:43:38;;;;;;;8.02;2.08;;;19.40;94.00;;;;;;5118075;27;20051;-75
2022/07/10 08:46:05;;;;;;;2.25;2.03;;;19.40;93.90;;;;;;5120694;27;20058;-75
2022/07/10 08:48:36;;;;;;;2.97;1.50;;;19.50;93.80;;;;;;5122780;27;20569;-75
2022/07/10 08:51:06;;;;;;;3.00;1.43;;;19.50;93.60;;;;;;5121664;27;20511;-75
2022/07/10 08:53:32;;;;;;;6.53;1.67;;;19.50;93.50;;;;;;5120469;27;20261;-75
2022/07/10 08:55:59;;;;;;;2.38;1.20;;;19.50;93.50;;;;;;5120797;27;20360;-75
2022/07/10 08:58:26;;;;;;;1.85;1.00;;;19.60;93.40;;;;;;5122596;27;20569;-75
2022/07/10 09:00:53;;;;;;;3.65;1.40;;;19.60;93.30;;;;;;5121780;27;20112;-75
2022/07/10 09:03:19;;;;;;;2.67;1.27;;;19.70;93.20;;;;;;5124132;27;20124;-75
2022/07/10 09:05:46;;;;;;;3.20;1.52;;;19.70;93.20;;;;;;5119379;27;20039;-75
2022/07/10 09:08:22;;;;;;;2.20;1.13;;;19.70;93.00;;;;;;5121792;27;20099;-75
2022/07/10 09:10:48;;;;;;;2.03;1.38;;;19.70;92.90;;;;;;5118503;27;20043;-75
2022/07/10 09:13:14;;;;;;;2.80;1.50;;;19.80;92.80;;;;;;5117354;27;20051;-73
2022/07/10 09:15:40;;;;;;;2.25;1.35;;;19.80;92.80;;;;;;5122090;27;20589;-75
2022/07/10 09:18:07;;;;;;;3.00;1.33;;;19.90;92.70;;;;;;5120381;27;20047;-75
2022/07/10 09:20:37;;;;;;;2.35;1.15;;;19.90;92.70;;;;;;5121752;27;20039;-75
2022/07/10 09:23:20;;;;;;;3.33;1.33;;;19.90;92.60;;;;;;5103585;27;20108;-75
2022/07/10 09:25:47;;;;;;;5.32;1.58;;;20.00;92.60;;;;;;5120877;27;20035;-75
2022/07/10 09:28:18;;;;;;;3.75;1.27;;;;;;;;;;5119136;27;20048;-75
2022/07/10 09:30:44;;;;;;;5.13;1.67;;;20.00;92.10;;;;;;5122331;27;20075;-75
2022/07/10 09:33:19;;;;;;;4.78;1.83;;;20.10;92.10;;;;;;5125946;27;20098;-75
2022/07/10 09:36:05;;;;;;;3.75;1.60;;;20.10;92.10;;;;;;5124284;27;20530;-75
2022/07/10 09:38:40;;;;;;;2.08;1.25;;;20.20;91.80;;;;;;5124015;27;20046;-75
2022/07/10 09:41:21;;;;;;;2.10;1.38;;;20.20;92.10;;;;;;5103396;27;20084;-75
2022/07/10 09:43:58;;;;;;;4.68;1.35;;;20.20;91.70;;;;;;5122168;27;20043;-75
2022/07/10 09:46:36;;;;;;;1.98;1.20;;;20.30;91.40;;;;;;5119467;27;20067;-76
2022/07/10 09:49:02;;;;;;;2.95;1.02;;;20.40;91.00;;;;;;5124455;27;20496;-76
2022/07/10 09:51:32;;;;;;;2.10;0.93;;;20.40;90.90;;;;;;5122801;27;20065;-76
2022/07/10 09:54:03;;;;;;;3.13;1.55;;;20.50;90.80;;;;;;5105780;27;20043;-75
2022/07/10 09:56:53;;;;;;;2.65;2.00;;;20.50;91.10;;;;;;5122339;27;20994;-76
2022/07/10 09:59:20;;;;;;;3.38;1.40;;;20.40;90.60;;;;;;5117640;27;20130;-75
2022/07/10 10:01:48;;;;;;;1.75;1.30;;;20.50;90.60;;;;;;5118517;27;20082;-75
2022/07/10 10:04:16;;;;;;;2.20;1.30;;;20.50;90.60;;;;;;5119338;27;20036;-76
2022/07/10 10:06:45;;;;;;;2.72;1.50;;;20.60;90.60;;;;;;5118914;27;20044;-76
2022/07/10 10:09:31;;;;;;;2.30;1.77;;;20.60;90.60;;;;;;5121986;27;20070;-76
2022/07/10 10:12:02;;;;;;;2.60;1.15;;;20.70;90.50;;;;;;5123409;27;20043;-76
2022/07/10 10:14:31;;;;;;;4.45;2.00;;;20.70;90.50;;;;;;5125380;27;20863;-76
2022/07/10 10:16:59;;;;;;;3.05;1.45;;;20.80;90.40;;;;;;5122952;27;20047;-77
2022/07/10 10:22:13;;;;;;;3.13;1.65;;;20.90;90.10;;;;;;5124717;27;20535;-76
2022/07/10 10:24:41;;;;;;;4.18;1.30;;;20.90;90.10;;;;;;5125550;27;20543;-81
2022/07/10 10:27:08;;;;;;;4.25;1.30;;;20.90;90.00;;;;;;5124563;27;20069;-80
2022/07/10 10:29:36;;;;;;;2.90;1.00;;;20.90;90.00;;;;;;5124983;27;20063;-79
2022/07/10 10:32:03;;;;;;;1.48;0.93;;;21.00;89.80;;;;;;5124563;27;20044;-79
2022/07/10 10:34:42;;;;;;;1.85;1.30;;;21.00;89.30;;;;;;5122059;27;20044;-79
2022/07/10 10:37:48;;;;;;;2.60;0.98;;;21.10;89.60;;;;;;5122813;27;20843;-76
2022/07/10 10:40:34;;;;;;;5.80;1.77;;;21.10;89.80;;;;;;5120520;27;20039;-76
2022/07/10 10:43:19;;;;;;;2.58;1.45;;;21.10;89.60;;;;;;5117671;27;20095;-76
2022/07/10 10:45:52;;;;;;;4.15;1.98;;;21.10;88.80;;;;;;5117636;27;20138;-77
2022/07/10 10:48:20;;;;;;;5.78;1.50;;;21.20;89.00;;;;;;5120095;27;20040;-77
2022/07/10 10:50:50;;;;;;;2.63;1.30;;;21.20;89.00;;;;;;5120868;27;20525;-87
2022/07/10 10:53:26;;;;;;;9.23;2.00;;;21.20;88.80;;;;;;5123498;27;20559;-76
2022/07/10 10:56:04;;;;;;;3.53;1.20;;;21.30;89.30;;;;;;5123065;27;20141;-75
2022/07/10 10:58:41;;;;;;;2.35;1.48;;;21.30;88.70;;;;;;5121468;27;20042;-75
2022/07/10 11:01:26;;;;;;;4.70;2.80;;;21.30;88.60;;;;;;5114986;27;20040;-75
2022/07/10 11:04:04;;;;;;;2.83;1.45;;;21.40;88.50;;;;;;5120994;27;20050;-75
2022/07/10 11:06:50;;;;;;;3.30;1.20;;;21.40;88.70;;;;;;5115441;27;20051;-76
2022/07/10 11:09:29;;;;;;;3.92;1.67;;;21.50;88.30;;;;;;5104528;27;20130;-75
2022/07/10 11:12:12;;;;;;;4.28;2.28;;;21.50;88.40;;;;;;5115329;27;20055;-75
2022/07/10 11:14:44;;;;;;;3.72;1.70;;;21.50;88.30;;;;;;5119364;27;20063;-76
2022/07/10 11:17:10;;;;;;;;;;;21.60;88.30;;;;;;5123911;27;20552;-76
2022/07/10 11:19:36;;;;;;;3.17;1.20;;;21.60;88.30;;;;;;5117923;27;20405;-75
2022/07/10 11:22:43;;;;;;;1.90;1.45;;;21.60;88.20;;;;;;5118916;27;20048;-76
2022/07/10 11:25:24;;;;;;;4.00;1.13;;;21.60;88.10;;;;;;5123813;27;20166;-76
2022/07/10 11:27:59;;;;;;;1.93;1.10;;;21.70;88.10;;;;;;5113997;27;20123;-76
2022/07/10 11:30:25;;;;;;;3.63;1.33;;;21.70;87.90;;;;;;5103280;27;20265;-76
2022/07/10 11:32:55;;;;;;;1.48;1.08;;;21.80;88.00;;;;;;5121556;27;20043;-75
2022/07/10 11:35:21;;;;;;;1.52;1.00;;;21.80;88.00;;;;;;5118078;27;20052;-76
2022/07/10 11:37:51;;;;;;;1.70;1.00;;;21.90;87.90;;;;;;5122131;27;20095;-75
2022/07/10 11:40:19;;;;;;;4.50;1.13;;;21.90;87.80;;;;;;5122812;27;20047;-75
2022/07/10 11:42:55;;;;;;;2.08;1.15;;;21.90;88.10;;;;;;5121009;27;20039;-75
2022/07/10 11:45:36;;;;;;;2.10;1.38;;;21.90;87.80;;;;;;5131144;27;20046;-74
2022/07/10 11:48:03;;;;;;;3.85;1.30;;;22.00;87.70;;;;;;5121840;27;20040;-75
2022/07/10 11:50:36;;;;;;;7.13;1.40;;;22.00;87.60;;;;;;5121478;27;20070;-75
2022/07/10 11:53:03;;;;;;;1.20;0.88;;;22.10;87.50;;;;;;5124783;27;20475;-79
2022/07/10 11:55:31;;;;;;;2.88;1.67;;;22.10;87.20;;;;;;5120391;27;20040;-79
2022/07/10 11:57:56;;;;;;;2.38;1.10;;;22.10;87.40;;;;;;5124163;27;20031;-77
2022/07/10 12:00:27;;;;;;;4.15;1.15;;;22.10;87.20;;;;;;5122750;27;20043;-76
2022/07/10 12:02:54;;;;;;;4.22;1.00;;;22.20;87.20;;;;;;5122172;27;20489;-75
2022/07/10 12:05:36;;;;;;;1.60;1.08;;;22.20;87.30;;;;;;5105398;27;20775;-76
2022/07/10 12:08:02;;;;;;;3.42;1.10;;;22.20;87.00;;;;;;5122973;27;20485;-74
2022/07/10 12:10:30;;;;;;;1.80;1.00;;;22.30;86.90;;;;;;5124105;27;20032;-76
2022/07/10 12:13:12;;;;;;;2.85;0.95;;;22.30;87.00;;;;;;5123474;27;20089;-74
2022/07/10 12:15:46;;;;;;;1.85;1.13;;;22.30;86.90;;;;;;5118300;27;20489;-76
2022/07/10 12:18:20;;;;;;;6.72;1.88;;;22.30;87.00;;;;;;5122393;27;20128;-75
2022/07/10 12:20:52;;;;;;;2.67;1.27;;;22.40;86.90;;;;;;5119463;27;20546;-75
2022/07/10 12:23:19;;;;;;;2.08;1.88;;;22.40;86.60;;;;;;5120654;27;20556;-75
2022/07/10 12:25:48;;;;;;;2.65;1.55;;;22.50;86.60;;;;;;5117749;27;20521;-75
2022/07/10 12:28:14;;;;;;;1.90;1.02;;;22.50;86.50;;;;;;5118187;27;20052;-75
2022/07/10 12:30:42;;;;;;;2.88;1.02;;;22.50;86.10;;;;;;5117769;27;20043;-75
2022/07/10 12:33:09;;;;;;;1.95;1.10;;;22.50;86.40;;;;;;5118956;27;20032;-75
2022/07/10 12:35:55;;;;;;;2.60;1.27;;;22.60;86.60;;;;;;5119613;27;20057;-74
2022/07/10 12:38:25;;;;;;;3.33;1.00;;;22.60;86.50;;;;;;5120222;27;20134;-75
2022/07/10 12:41:06;;;;;;;3.85;1.00;;;22.60;86.50;;;;;;5112723;27;20043;-75
2022/07/10 12:43:31;;;;;;;2.55;1.20;;;22.70;86.20;;;;;;5118753;27;20560;-75
2022/07/10 12:46:18;;;;;;;3.28;1.65;;;22.70;86.20;;;;;;5113237;27;20050;-75
2022/07/10 12:49:00;;;;;;;1.42;0.93;;;22.70;86.10;;;;;;5119767;27;20043;-75
2022/07/10 12:51:28;;;;;;;2.25;1.27;;;22.80;86.00;;;;;;5119325;27;20046;-75
2022/07/10 12:53:54;;;;;;;2.22;1.67;;;22.80;86.00;;;;;;5118266;27;20043;-75
2022/07/10 12:56:34;;;;;;;2.95;1.00;;;22.90;85.70;;;;;;5121241;27;20102;-75
2022/07/10 12:59:02;;;;;;;2.20;1.13;;;22.80;85.20;;;;;;5117090;27;20097;-75
2022/07/10 13:01:39;;;;;;;2.38;1.38;;;22.90;85.20;;;;;;5118170;27;20096;-74
2022/07/10 13:04:05;;;;;;;1.88;1.10;;;22.90;85.40;;;;;;5117575;27;20055;-75